sensor_id;sensor_type;location;lat;lon;timestamp;pressure;altitude;pressure_sealevel;temperature;humidity
7824;BME280;3957;48.61947800;9.05303100;2023-02-13T00:00:57;97910.66;;;-2.37;100.00
7824;BME280;3957;48.61947800;9.05303100;2023-02-13T00:01:58;97905.25;;;-2.34;100.00
7824;BME280;3957;48.61947800;9.05303100;2023-02-13T00:02:59;97912.78;;;-2.28;100.00
7824;BME280;3957;48.61947800;9.05303100;2023-02-13T00:04:00;97908.47;;;-2.29;100.00
7824;BME280;3957;48.61947800;9.05303100;2023-02-13T00:05:00;97908.63;;;-2.32;100.00
7824;BME280;3957;48.61947800;9.05303100;2023-02-13T00:06:00;97910.41;;;-2.33;100.00
7824;BME280;3957;48.61947800;9.05303100;2023-02-13T00:07:01;97907.72;;;-2.31;100.00
7824;BME280;3957;48.61947800;9.05303100;2023-02-13T00:08:01;97906.00;;;-2.32;100.00
7824;BME280;3957;48.61947800;9.05303100;2023-02-13T00:09:02;97905.91;;;-2.31;100.00
7824;BME280;3957;48.61947800;9.05303100;2023-02-13T00:10:03;97902.47;;;-2.31;100.00
7824;BME280;3957;48.61947800;9.05303100;2023-02-13T00:11:03;97901.38;;;-2.27;100.00
7824;BME280;3957;48.61947800;9.05303100;2023-02-13T00:12:06;97901.00;;;-2.19;100.00
7824;BME280;3957;48.61947800;9.05303100;2023-02-13T00:13:06;97901.13;;;-2.23;100.00
7824;BME280;3957;48.61947800;9.05303100;2023-02-13T00:14:07;97900.91;;;-2.18;100.00
7824;BME280;3957;48.61947800;9.05303100;2023-02-13T00:15:08;97910.78;;;-2.06;100.00
7824;BME280;3957;48.61947800;9.05303100;2023-02-13T00:16:08;97907.91;;;-2.01;100.00
7824;BME280;3957;48.61947800;9.05303100;2023-02-13T00:17:09;97907.97;;;-2.02;100.00
7824;BME280;3957;48.61947800;9.05303100;2023-02-13T00:18:09;97902.41;;;-1.96;100.00
7824;BME280;3957;48.61947800;9.05303100;2023-02-13T00:19:10;97905.72;;;-1.93;100.00
7824;BME280;3957;48.61947800;9.05303100;2023-02-13T00:20:10;97905.09;;;-1.98;100.00
7824;BME280;3957;48.61947800;9.05303100;2023-02-13T00:21:12;97905.47;;;-1.88;100.00
7824;BME280;3957;48.61947800;9.05303100;2023-02-13T00:22:12;97908.53;;;-1.80;100.00
7824;BME280;3957;48.61947800;9.05303100;2023-02-13T00:23:15;97914.47;;;-1.76;100.00
7824;BME280;3957;48.61947800;9.05303100;2023-02-13T00:24:16;97907.88;;;-1.67;100.00
7824;BME280;3957;48.61947800;9.05303100;2023-02-13T00:25:16;97906.19;;;-1.68;100.00
7824;BME280;3957;48.61947800;9.05303100;2023-02-13T00:26:17;97903.63;;;-1.70;100.00
7824;BME280;3957;48.61947800;9.05303100;2023-02-13T00:27:18;97907.28;;;-1.73;100.00
7824;BME280;3957;48.61947800;9.05303100;2023-02-13T00:28:18;97908.66;;;-1.65;100.00
7824;BME280;3957;48.61947800;9.05303100;2023-02-13T00:29:19;97910.31;;;-1.64;100.00
7824;BME280;3957;48.61947800;9.05303100;2023-02-13T00:30:20;97913.03;;;-1.66;100.00
7824;BME280;3957;48.61947800;9.05303100;2023-02-13T00:31:21;97908.75;;;-1.67;100.00
7824;BME280;3957;48.61947800;9.05303100;2023-02-13T00:32:22;97907.44;;;-1.76;100.00
7824;BME280;3957;48.61947800;9.05303100;2023-02-13T00:33:23;97897.28;;;-1.82;100.00
7824;BME280;3957;48.61947800;9.05303100;2023-02-13T00:34:23;97900.00;;;-1.83;100.00
7824;BME280;3957;48.61947800;9.05303100;2023-02-13T00:35:23;97896.41;;;-1.82;100.00
7824;BME280;3957;48.61947800;9.05303100;2023-02-13T00:36:26;97898.81;;;-1.78;100.00
7824;BME280;3957;48.61947800;9.05303100;2023-02-13T00:37:26;97906.69;;;-1.78;100.00
7824;BME280;3957;48.61947800;9.05303100;2023-02-13T00:38:29;97906.91;;;-1.82;100.00
7824;BME280;3957;48.61947800;9.05303100;2023-02-13T00:39:29;97903.38;;;-1.81;100.00
7824;BME280;3957;48.61947800;9.05303100;2023-02-13T00:40:29;97901.00;;;-1.70;100.00
7824;BME280;3957;48.61947800;9.05303100;2023-02-13T00:41:30;97907.69;;;-1.64;100.00
7824;BME280;3957;48.61947800;9.05303100;2023-02-13T00:42:30;97905.25;;;-1.67;100.00
7824;BME280;3957;48.61947800;9.05303100;2023-02-13T00:43:30;97908.13;;;-1.72;100.00
7824;BME280;3957;48.61947800;9.05303100;2023-02-13T00:44:31;97902.19;;;-1.76;100.00
7824;BME280;3957;48.61947800;9.05303100;2023-02-13T00:45:31;97909.47;;;-1.81;100.00
7824;BME280;3957;48.61947800;9.05303100;2023-02-13T00:46:32;97908.69;;;-1.83;100.00
7824;BME280;3957;48.61947800;9.05303100;2023-02-13T00:47:32;97909.53;;;-1.82;100.00
7824;BME280;3957;48.61947800;9.05303100;2023-02-13T00:48:33;97906.78;;;-1.79;100.00
7824;BME280;3957;48.61947800;9.05303100;2023-02-13T00:49:34;97912.09;;;-1.81;100.00
7824;BME280;3957;48.61947800;9.05303100;2023-02-13T00:50:35;97914.72;;;-1.81;100.00
7824;BME280;3957;48.61947800;9.05303100;2023-02-13T00:51:36;97911.94;;;-1.78;100.00
7824;BME280;3957;48.61947800;9.05303100;2023-02-13T00:52:36;97915.41;;;-1.77;100.00
7824;BME280;3957;48.61947800;9.05303100;2023-02-13T00:53:37;97921.66;;;-1.80;100.00
7824;BME280;3957;48.61947800;9.05303100;2023-02-13T00:54:38;97910.41;;;-1.82;100.00
7824;BME280;3957;48.61947800;9.05303100;2023-02-13T00:55:39;97916.47;;;-1.81;100.00
7824;BME280;3957;48.61947800;9.05303100;2023-02-13T00:56:42;97909.53;;;-1.82;100.00
7824;BME280;3957;48.61947800;9.05303100;2023-02-13T00:57:42;97916.47;;;-1.81;100.00
7824;BME280;3957;48.61947800;9.05303100;2023-02-13T00:58:45;97916.47;;;-1.81;100.00
7824;BME280;3957;48.61947800;9.05303100;2023-02-13T00:59:45;97912.59;;;-1.74;100.00
7824;BME280;3957;48.61947800;9.05303100;2023-02-13T01:00:47;97906.13;;;-1.67;100.00
7824;BME280;3957;48.61947800;9.05303100;2023-02-13T01:01:47;97906.88;;;-1.65;100.00
7824;BME280;3957;48.61947800;9.05303100;2023-02-13T01:02:48;97911.44;;;-1.68;100.00
7824;BME280;3957;48.61947800;9.05303100;2023-02-13T01:03:48;97911.84;;;-1.76;100.00
7824;BME280;3957;48.61947800;9.05303100;2023-02-13T01:04:48;97905.16;;;-1.82;100.00
7824;BME280;3957;48.61947800;9.05303100;2023-02-13T01:05:50;97913.28;;;-1.71;100.00
7824;BME280;3957;48.61947800;9.05303100;2023-02-13T01:06:50;97909.91;;;-1.73;100.00
7824;BME280;3957;48.61947800;9.05303100;2023-02-13T01:07:50;97909.13;;;-1.75;100.00
7824;BME280;3957;48.61947800;9.05303100;2023-02-13T01:08:51;97904.28;;;-1.82;100.00
7824;BME280;3957;48.61947800;9.05303100;2023-02-13T01:09:51;97907.56;;;-1.61;100.00
7824;BME280;3957;48.61947800;9.05303100;2023-02-13T01:10:53;97905.47;;;-1.55;100.00
7824;BME280;3957;48.61947800;9.05303100;2023-02-13T01:11:54;97904.78;;;-1.42;100.00
7824;BME280;3957;48.61947800;9.05303100;2023-02-13T01:12:54;97902.91;;;-1.40;100.00
7824;BME280;3957;48.61947800;9.05303100;2023-02-13T01:13:55;97898.44;;;-1.38;100.00
7824;BME280;3957;48.61947800;9.05303100;2023-02-13T01:14:55;97905.94;;;-1.48;100.00
7824;BME280;3957;48.61947800;9.05303100;2023-02-13T01:15:55;97899.25;;;-1.54;100.00
7824;BME280;3957;48.61947800;9.05303100;2023-02-13T01:16:56;97895.97;;;-1.57;100.00
7824;BME280;3957;48.61947800;9.05303100;2023-02-13T01:17:56;97896.88;;;-1.58;100.00
7824;BME280;3957;48.61947800;9.05303100;2023-02-13T01:18:59;97900.94;;;-1.52;100.00
7824;BME280;3957;48.61947800;9.05303100;2023-02-13T01:19:59;97901.31;;;-1.59;100.00
7824;BME280;3957;48.61947800;9.05303100;2023-02-13T01:21:03;97901.00;;;-1.70;100.00
7824;BME280;3957;48.61947800;9.05303100;2023-02-13T01:22:03;97898.63;;;-1.75;100.00
7824;BME280;3957;48.61947800;9.05303100;2023-02-13T01:23:04;97897.44;;;-1.85;100.00
7824;BME280;3957;48.61947800;9.05303100;2023-02-13T01:24:05;97895.56;;;-1.83;100.00
7824;BME280;3957;48.61947800;9.05303100;2023-02-13T01:25:06;97891.78;;;-1.77;100.00
7824;BME280;3957;48.61947800;9.05303100;2023-02-13T01:26:08;97894.41;;;-1.77;100.00
7824;BME280;3957;48.61947800;9.05303100;2023-02-13T01:27:10;97894.00;;;-1.69;100.00
7824;BME280;3957;48.61947800;9.05303100;2023-02-13T01:28:10;97900.69;;;-1.64;100.00
7824;BME280;3957;48.61947800;9.05303100;2023-02-13T01:29:12;97896.81;;;-1.57;100.00
7824;BME280;3957;48.61947800;9.05303100;2023-02-13T01:30:14;97894.78;;;-1.35;100.00
7824;BME280;3957;48.61947800;9.05303100;2023-02-13T01:31:15;97894.53;;;-1.31;100.00
7824;BME280;3957;48.61947800;9.05303100;2023-02-13T01:32:15;97892.41;;;-1.24;100.00
7824;BME280;3957;48.61947800;9.05303100;2023-02-13T01:33:15;97894.00;;;-1.22;100.00
7824;BME280;3957;48.61947800;9.05303100;2023-02-13T01:34:18;97894.78;;;-1.20;100.00
7824;BME280;3957;48.61947800;9.05303100;2023-02-13T01:35:19;97885.00;;;-1.17;100.00
7824;BME280;3957;48.61947800;9.05303100;2023-02-13T01:36:19;97885.09;;;-1.19;100.00
7824;BME280;3957;48.61947800;9.05303100;2023-02-13T01:37:20;97887.31;;;-1.27;100.00
7824;BME280;3957;48.61947800;9.05303100;2023-02-13T01:38:20;97881.59;;;-1.34;100.00
7824;BME280;3957;48.61947800;9.05303100;2023-02-13T01:39:20;97886.88;;;-1.35;100.00
7824;BME280;3957;48.61947800;9.05303100;2023-02-13T01:40:21;97885.03;;;-1.49;100.00
7824;BME280;3957;48.61947800;9.05303100;2023-02-13T01:41:22;97886.56;;;-1.61;100.00
7824;BME280;3957;48.61947800;9.05303100;2023-02-13T01:42:28;97886.34;;;-1.74;100.00
7824;BME280;3957;48.61947800;9.05303100;2023-02-13T01:44:53;97885.91;;;-1.82;100.00
7824;BME280;3957;48.61947800;9.05303100;2023-02-13T01:45:55;97884.56;;;-1.90;100.00
7824;BME280;3957;48.61947800;9.05303100;2023-02-13T01:46:57;97884.13;;;-1.98;100.00
7824;BME280;3957;48.61947800;9.05303100;2023-02-13T01:48:18;97886.38;;;-2.08;100.00
7824;BME280;3957;48.61947800;9.05303100;2023-02-13T01:49:22;97888.03;;;-2.23;100.00
7824;BME280;3957;48.61947800;9.05303100;2023-02-13T01:50:35;97880.56;;;-2.30;100.00
7824;BME280;3957;48.61947800;9.05303100;2023-02-13T01:51:37;97883.19;;;-2.30;100.00
7824;BME280;3957;48.61947800;9.05303100;2023-02-13T01:52:42;97889.63;;;-2.20;100.00
7824;BME280;3957;48.61947800;9.05303100;2023-02-13T01:53:52;97886.53;;;-2.11;100.00
7824;BME280;3957;48.61947800;9.05303100;2023-02-13T01:54:56;97881.31;;;-2.11;100.00
7824;BME280;3957;48.61947800;9.05303100;2023-02-13T01:55:58;97884.00;;;-2.12;100.00
7824;BME280;3957;48.61947800;9.05303100;2023-02-13T01:57:10;97883.31;;;-2.16;100.00
7824;BME280;3957;48.61947800;9.05303100;2023-02-13T01:58:16;97885.31;;;-2.21;100.00
7824;BME280;3957;48.61947800;9.05303100;2023-02-13T01:59:22;97874.69;;;-2.18;100.00
7824;BME280;3957;48.61947800;9.05303100;2023-02-13T02:00:25;97873.59;;;-2.14;100.00
7824;BME280;3957;48.61947800;9.05303100;2023-02-13T02:01:25;97881.22;;;-2.09;100.00
7824;BME280;3957;48.61947800;9.05303100;2023-02-13T02:02:30;97878.59;;;-2.09;100.00
7824;BME280;3957;48.61947800;9.05303100;2023-02-13T02:03:44;97875.88;;;-2.08;100.00
7824;BME280;3957;48.61947800;9.05303100;2023-02-13T02:04:47;97882.91;;;-2.08;100.00
7824;BME280;3957;48.61947800;9.05303100;2023-02-13T02:05:54;97881.22;;;-2.09;100.00
7824;BME280;3957;48.61947800;9.05303100;2023-02-13T02:06:59;97874.34;;;-2.12;100.00
7824;BME280;3957;48.61947800;9.05303100;2023-02-13T02:08:08;97883.38;;;-2.17;100.00
7824;BME280;3957;48.61947800;9.05303100;2023-02-13T02:09:16;97877.53;;;-2.23;100.00
7824;BME280;3957;48.61947800;9.05303100;2023-02-13T02:10:19;97881.16;;;-2.25;100.00
7824;BME280;3957;48.61947800;9.05303100;2023-02-13T02:11:35;97879.69;;;-2.31;100.00
7824;BME280;3957;48.61947800;9.05303100;2023-02-13T02:12:46;97885.28;;;-2.37;100.00
7824;BME280;3957;48.61947800;9.05303100;2023-02-13T02:13:51;97878.03;;;-2.32;100.00
7824;BME280;3957;48.61947800;9.05303100;2023-02-13T02:15:04;97881.25;;;-2.27;100.00
7824;BME280;3957;48.61947800;9.05303100;2023-02-13T02:16:06;97873.81;;;-2.18;100.00
7824;BME280;3957;48.61947800;9.05303100;2023-02-13T02:17:08;97875.13;;;-2.10;100.00
7824;BME280;3957;48.61947800;9.05303100;2023-02-13T02:18:17;97879.69;;;-2.13;100.00
7824;BME280;3957;48.61947800;9.05303100;2023-02-13T02:19:58;97886.63;;;-2.12;100.00
7824;BME280;3957;48.61947800;9.05303100;2023-02-13T02:28:13;97880.69;;;-2.16;100.00
7824;BME280;3957;48.61947800;9.05303100;2023-02-13T02:29:48;97884.84;;;-2.12;100.00
7824;BME280;3957;48.61947800;9.05303100;2023-02-13T02:32:32;97875.50;;;-2.00;100.00
7824;BME280;3957;48.61947800;9.05303100;2023-02-13T02:35:12;97883.94;;;-1.95;100.00
7824;BME280;3957;48.61947800;9.05303100;2023-02-13T02:36:34;97881.41;;;-1.96;100.00
7824;BME280;3957;48.61947800;9.05303100;2023-02-13T02:39:07;97884.25;;;-1.83;100.00
7824;BME280;3957;48.61947800;9.05303100;2023-02-13T02:41:15;97888.22;;;-1.76;100.00
7824;BME280;3957;48.61947800;9.05303100;2023-02-13T02:42:44;97882.16;;;-1.77;100.00
7824;BME280;3957;48.61947800;9.05303100;2023-02-13T02:44:05;97881.38;;;-1.79;100.00
7824;BME280;3957;48.61947800;9.05303100;2023-02-13T02:48:29;97885.34;;;-1.88;100.00
7824;BME280;3957;48.61947800;9.05303100;2023-02-13T02:50:13;97887.34;;;-1.93;100.00
7824;BME280;3957;48.61947800;9.05303100;2023-02-13T02:56:39;97885.19;;;-2.18;100.00
7824;BME280;3957;48.61947800;9.05303100;2023-02-13T02:57:51;97893.25;;;-2.23;100.00
7824;BME280;3957;48.61947800;9.05303100;2023-02-13T02:59:15;97886.41;;;-2.25;100.00
7824;BME280;3957;48.61947800;9.05303100;2023-02-13T03:00:39;97888.03;;;-2.23;100.00
7824;BME280;3957;48.61947800;9.05303100;2023-02-13T03:02:00;97886.72;;;-2.14;100.00
7824;BME280;3957;48.61947800;9.05303100;2023-02-13T03:03:24;97891.16;;;-1.98;100.00
7824;BME280;3957;48.61947800;9.05303100;2023-02-13T03:04:50;97889.53;;;-2.01;100.00
7824;BME280;3957;48.61947800;9.05303100;2023-02-13T03:06:35;97887.00;;;-2.02;100.00
7824;BME280;3957;48.61947800;9.05303100;2023-02-13T03:07:37;97886.25;;;-1.89;100.00
7824;BME280;3957;48.61947800;9.05303100;2023-02-13T03:08:39;97884.06;;;-1.80;100.00
7824;BME280;3957;48.61947800;9.05303100;2023-02-13T03:10:03;97885.13;;;-1.67;100.00
7824;BME280;3957;48.61947800;9.05303100;2023-02-13T03:11:22;97892.03;;;-1.82;100.00
7824;BME280;3957;48.61947800;9.05303100;2023-02-13T03:12:53;97885.09;;;-1.83;100.00
7824;BME280;3957;48.61947800;9.05303100;2023-02-13T03:14:18;97884.16;;;-1.82;100.00
7824;BME280;3957;48.61947800;9.05303100;2023-02-13T03:15:20;97889.97;;;-1.93;100.00
7824;BME280;3957;48.61947800;9.05303100;2023-02-13T03:16:23;97892.94;;;-1.99;100.00
7824;BME280;3957;48.61947800;9.05303100;2023-02-13T03:17:42;97885.91;;;-1.98;100.00
7824;BME280;3957;48.61947800;9.05303100;2023-02-13T03:19:01;97889.41;;;-1.82;100.00
7824;BME280;3957;48.61947800;9.05303100;2023-02-13T03:20:49;97884.34;;;-1.69;100.00
7824;BME280;3957;48.61947800;9.05303100;2023-02-13T03:22:34;97891.13;;;-1.65;100.00
7824;BME280;3957;48.61947800;9.05303100;2023-02-13T03:23:57;97896.72;;;-1.55;100.00
7824;BME280;3957;48.61947800;9.05303100;2023-02-13T03:26:31;97895.69;;;-1.52;100.00
7824;BME280;3957;48.61947800;9.05303100;2023-02-13T03:28:03;97903.31;;;-1.48;100.00
7824;BME280;3957;48.61947800;9.05303100;2023-02-13T03:30:00;97893.59;;;-1.46;100.00
7824;BME280;3957;48.61947800;9.05303100;2023-02-13T03:31:11;97899.69;;;-1.45;100.00
7824;BME280;3957;48.61947800;9.05303100;2023-02-13T03:33:57;97898.16;;;-1.49;100.00
7824;BME280;3957;48.61947800;9.05303100;2023-02-13T03:35:14;97899.34;;;-1.55;100.00
7824;BME280;3957;48.61947800;9.05303100;2023-02-13T03:36:58;97894.00;;;-1.69;100.00
7824;BME280;3957;48.61947800;9.05303100;2023-02-13T03:38:31;97901.66;;;-1.82;100.00
7824;BME280;3957;48.61947800;9.05303100;2023-02-13T03:41:04;97898.19;;;-1.99;100.00
7824;BME280;3957;48.61947800;9.05303100;2023-02-13T03:43:40;97901.59;;;-2.14;100.00
7824;BME280;3957;48.61947800;9.05303100;2023-02-13T03:44:47;97904.53;;;-2.20;100.00
7824;BME280;3957;48.61947800;9.05303100;2023-02-13T03:46:10;97897.75;;;-2.25;100.00
7824;BME280;3957;48.61947800;9.05303100;2023-02-13T03:47:12;97895.50;;;-2.32;100.00
7824;BME280;3957;48.61947800;9.05303100;2023-02-13T03:48:16;97896.84;;;-2.41;100.00
7824;BME280;3957;48.61947800;9.05303100;2023-02-13T03:49:41;97898.09;;;-2.48;100.00
7824;BME280;3957;48.61947800;9.05303100;2023-02-13T03:51:02;97899.09;;;-2.51;100.00
7824;BME280;3957;48.61947800;9.05303100;2023-02-13T03:52:11;97899.25;;;-2.54;100.00
7824;BME280;3957;48.61947800;9.05303100;2023-02-13T03:53:13;97899.28;;;-2.56;100.00
7824;BME280;3957;48.61947800;9.05303100;2023-02-13T03:54:16;97896.16;;;-2.62;100.00
7824;BME280;3957;48.61947800;9.05303100;2023-02-13T03:55:28;97899.00;;;-2.67;100.00
7824;BME280;3957;48.61947800;9.05303100;2023-02-13T03:56:49;97899.31;;;-2.73;100.00
7824;BME280;3957;48.61947800;9.05303100;2023-02-13T03:58:16;97900.47;;;-2.79;100.00
7824;BME280;3957;48.61947800;9.05303100;2023-02-13T03:59:37;97901.47;;;-2.81;100.00
7824;BME280;3957;48.61947800;9.05303100;2023-02-13T04:00:45;97897.13;;;-2.82;100.00
7824;BME280;3957;48.61947800;9.05303100;2023-02-13T04:01:59;97903.28;;;-2.83;100.00
7824;BME280;3957;48.61947800;9.05303100;2023-02-13T04:03:18;97898.44;;;-2.91;100.00
7824;BME280;3957;48.61947800;9.05303100;2023-02-13T04:04:28;97912.47;;;-2.92;100.00
7824;BME280;3957;48.61947800;9.05303100;2023-02-13T04:05:36;97899.59;;;-2.97;100.00
7824;BME280;3957;48.61947800;9.05303100;2023-02-13T04:07:49;97906.03;;;-3.04;100.00
7824;BME280;3957;48.61947800;9.05303100;2023-02-13T04:08:50;97910.66;;;-3.09;100.00
7824;BME280;3957;48.61947800;9.05303100;2023-02-13T04:09:50;97900.31;;;-3.12;100.00
7824;BME280;3957;48.61947800;9.05303100;2023-02-13T04:12:17;97904.94;;;-3.17;100.00
7824;BME280;3957;48.61947800;9.05303100;2023-02-13T04:14:29;97901.63;;;-3.21;100.00
7824;BME280;3957;48.61947800;9.05303100;2023-02-13T04:15:47;97907.00;;;-3.24;100.00
7824;BME280;3957;48.61947800;9.05303100;2023-02-13T04:16:52;97911.53;;;-3.28;100.00
7824;BME280;3957;48.61947800;9.05303100;2023-02-13T04:18:04;97912.50;;;-3.30;100.00
7824;BME280;3957;48.61947800;9.05303100;2023-02-13T04:19:07;97920.53;;;-3.33;100.00
7824;BME280;3957;48.61947800;9.05303100;2023-02-13T04:20:09;97916.28;;;-3.36;100.00
7824;BME280;3957;48.61947800;9.05303100;2023-02-13T04:21:10;97912.91;;;-3.38;100.00
7824;BME280;3957;48.61947800;9.05303100;2023-02-13T04:22:11;97920.91;;;-3.41;100.00
7824;BME280;3957;48.61947800;9.05303100;2023-02-13T04:23:11;97920.94;;;-3.43;100.00
7824;BME280;3957;48.61947800;9.05303100;2023-02-13T04:24:12;97916.72;;;-3.45;100.00
7824;BME280;3957;48.61947800;9.05303100;2023-02-13T04:25:14;97916.78;;;-3.47;100.00
7824;BME280;3957;48.61947800;9.05303100;2023-02-13T04:26:18;97920.44;;;-3.51;100.00
7824;BME280;3957;48.61947800;9.05303100;2023-02-13T04:27:20;97922.31;;;-3.53;100.00
7824;BME280;3957;48.61947800;9.05303100;2023-02-13T04:28:20;97919.69;;;-3.53;100.00
7824;BME280;3957;48.61947800;9.05303100;2023-02-13T04:29:22;97920.66;;;-3.55;100.00
7824;BME280;3957;48.61947800;9.05303100;2023-02-13T04:30:22;97919.91;;;-3.57;100.00
7824;BME280;3957;48.61947800;9.05303100;2023-02-13T04:31:23;97919.03;;;-3.58;100.00
7824;BME280;3957;48.61947800;9.05303100;2023-02-13T04:32:23;97916.41;;;-3.58;100.00
7824;BME280;3957;48.61947800;9.05303100;2023-02-13T04:33:23;97912.25;;;-3.62;100.00
7824;BME280;3957;48.61947800;9.05303100;2023-02-13T04:34:24;97914.09;;;-3.64;100.00
7824;BME280;3957;48.61947800;9.05303100;2023-02-13T04:35:24;97918.47;;;-3.65;100.00
7824;BME280;3957;48.61947800;9.05303100;2023-02-13T04:36:24;97909.84;;;-3.67;100.00
7824;BME280;3957;48.61947800;9.05303100;2023-02-13T04:37:25;97913.38;;;-3.68;100.00
7824;BME280;3957;48.61947800;9.05303100;2023-02-13T04:38:25;97916.06;;;-3.69;100.00
7824;BME280;3957;48.61947800;9.05303100;2023-02-13T04:39:26;97910.75;;;-3.68;100.00
7824;BME280;3957;48.61947800;9.05303100;2023-02-13T04:40:26;97910.91;;;-3.71;100.00
7824;BME280;3957;48.61947800;9.05303100;2023-02-13T04:41:27;97914.28;;;-3.69;100.00
7824;BME280;3957;48.61947800;9.05303100;2023-02-13T04:42:27;97910.91;;;-3.71;100.00
7824;BME280;3957;48.61947800;9.05303100;2023-02-13T04:43:27;97917.06;;;-3.72;100.00
7824;BME280;3957;48.61947800;9.05303100;2023-02-13T04:44:28;97919.75;;;-3.73;100.00
7824;BME280;3957;48.61947800;9.05303100;2023-02-13T04:45:28;97914.44;;;-3.72;100.00
7824;BME280;3957;48.61947800;9.05303100;2023-02-13T04:46:29;97913.53;;;-3.71;100.00
7824;BME280;3957;48.61947800;9.05303100;2023-02-13T04:47:29;97920.47;;;-3.70;100.00
7824;BME280;3957;48.61947800;9.05303100;2023-02-13T04:48:30;97913.13;;;-3.62;100.00
7824;BME280;3957;48.61947800;9.05303100;2023-02-13T04:49:30;97920.91;;;-3.60;100.00
7824;BME280;3957;48.61947800;9.05303100;2023-02-13T04:50:31;97917.47;;;-3.62;100.00
7824;BME280;3957;48.61947800;9.05303100;2023-02-13T04:51:31;97921.81;;;-3.61;100.00
7824;BME280;3957;48.61947800;9.05303100;2023-02-13T04:52:31;97919.25;;;-3.63;100.00
7824;BME280;3957;48.61947800;9.05303100;2023-02-13T04:53:32;97914.03;;;-3.63;100.00
7824;BME280;3957;48.61947800;9.05303100;2023-02-13T04:54:32;97922.78;;;-3.64;100.00
7824;BME280;3957;48.61947800;9.05303100;2023-02-13T04:55:32;97920.09;;;-3.62;100.00
7824;BME280;3957;48.61947800;9.05303100;2023-02-13T04:56:33;97927.19;;;-3.64;100.00
7824;BME280;3957;48.61947800;9.05303100;2023-02-13T04:57:33;97924.41;;;-3.61;100.00
7824;BME280;3957;48.61947800;9.05303100;2023-02-13T04:58:33;97931.34;;;-3.60;100.00
7824;BME280;3957;48.61947800;9.05303100;2023-02-13T04:59:34;97933.19;;;-3.62;100.00
7824;BME280;3957;48.61947800;9.05303100;2023-02-13T05:00:35;97928.88;;;-3.63;100.00
7824;BME280;3957;48.61947800;9.05303100;2023-02-13T05:01:36;97929.81;;;-3.64;100.00
7824;BME280;3957;48.61947800;9.05303100;2023-02-13T05:02:37;97925.47;;;-3.65;100.00
7824;BME280;3957;48.61947800;9.05303100;2023-02-13T05:03:37;97928.16;;;-3.67;100.00
7824;BME280;3957;48.61947800;9.05303100;2023-02-13T05:04:37;97927.34;;;-3.67;100.00
7824;BME280;3957;48.61947800;9.05303100;2023-02-13T05:05:39;97929.06;;;-3.68;100.00
7824;BME280;3957;48.61947800;9.05303100;2023-02-13T05:06:39;97924.75;;;-3.69;100.00
7824;BME280;3957;48.61947800;9.05303100;2023-02-13T05:07:40;97931.00;;;-3.71;100.00
7824;BME280;3957;48.61947800;9.05303100;2023-02-13T05:08:41;97928.44;;;-3.73;100.00
7824;BME280;3957;48.61947800;9.05303100;2023-02-13T05:09:41;97930.22;;;-3.73;100.00
7824;BME280;3957;48.61947800;9.05303100;2023-02-13T05:10:42;97923.69;;;-3.65;100.00
7824;BME280;3957;48.61947800;9.05303100;2023-02-13T05:11:42;97934.16;;;-3.65;100.00
7824;BME280;3957;48.61947800;9.05303100;2023-02-13T05:12:42;97928.09;;;-3.65;100.00
7824;BME280;3957;48.61947800;9.05303100;2023-02-13T05:13:43;97931.56;;;-3.65;100.00
7824;BME280;3957;48.61947800;9.05303100;2023-02-13T05:14:43;97928.09;;;-3.65;100.00
7824;BME280;3957;48.61947800;9.05303100;2023-02-13T05:15:43;97922.88;;;-3.65;100.00
7824;BME280;3957;48.61947800;9.05303100;2023-02-13T05:16:44;97922.78;;;-3.64;100.00
7824;BME280;3957;48.61947800;9.05303100;2023-02-13T05:17:45;97920.16;;;-3.64;100.00
7824;BME280;3957;48.61947800;9.05303100;2023-02-13T05:18:46;97927.19;;;-3.64;100.00
7824;BME280;3957;48.61947800;9.05303100;2023-02-13T05:19:46;97925.41;;;-3.64;100.00
7824;BME280;3957;48.61947800;9.05303100;2023-02-13T05:20:46;97918.44;;;-3.63;100.00
7824;BME280;3957;48.61947800;9.05303100;2023-02-13T05:22:08;97920.91;;;-3.60;100.00
7824;BME280;3957;48.61947800;9.05303100;2023-02-13T05:23:28;97923.50;;;-3.60;100.00
7824;BME280;3957;48.61947800;9.05303100;2023-02-13T05:24:28;97922.53;;;-3.57;100.00
7824;BME280;3957;48.61947800;9.05303100;2023-02-13T05:25:29;97918.88;;;-3.55;100.00
7824;BME280;3957;48.61947800;9.05303100;2023-02-13T05:26:29;97923.13;;;-3.52;100.00
7824;BME280;3957;48.61947800;9.05303100;2023-02-13T05:27:29;97917.91;;;-3.52;100.00
7824;BME280;3957;48.61947800;9.05303100;2023-02-13T05:28:30;97924.84;;;-3.51;100.00
7824;BME280;3957;48.61947800;9.05303100;2023-02-13T05:29:49;97923.03;;;-3.49;100.00
7824;BME280;3957;48.61947800;9.05303100;2023-02-13T05:30:49;97923.03;;;-3.49;100.00
7824;BME280;3957;48.61947800;9.05303100;2023-02-13T05:31:52;97921.16;;;-3.47;100.00
7824;BME280;3957;48.61947800;9.05303100;2023-02-13T05:32:53;97927.97;;;-3.43;100.00
7824;BME280;3957;48.61947800;9.05303100;2023-02-13T05:33:54;97926.19;;;-3.43;100.00
7824;BME280;3957;48.61947800;9.05303100;2023-02-13T05:34:54;97933.13;;;-3.42;100.00
7824;BME280;3957;48.61947800;9.05303100;2023-02-13T05:35:54;97924.50;;;-3.44;100.00
7824;BME280;3957;48.61947800;9.05303100;2023-02-13T05:36:55;97929.75;;;-3.44;100.00
7824;BME280;3957;48.61947800;9.05303100;2023-02-13T05:37:55;97924.50;;;-3.44;100.00
7824;BME280;3957;48.61947800;9.05303100;2023-02-13T05:38:56;97928.88;;;-3.44;100.00
7824;BME280;3957;48.61947800;9.05303100;2023-02-13T05:39:56;97918.47;;;-3.46;100.00
7824;BME280;3957;48.61947800;9.05303100;2023-02-13T05:41:00;97923.72;;;-3.46;100.00
7824;BME280;3957;48.61947800;9.05303100;2023-02-13T05:42:00;97917.63;;;-3.46;100.00
7824;BME280;3957;48.61947800;9.05303100;2023-02-13T05:43:03;97921.09;;;-3.46;100.00